Time;durP1;ratioP1;P1;durP2;ratioP2;P2;SDS_P1;SDS_P2;PMS_P1;PMS_P2;Temp;Humidity;BMP_temperature;BMP_pressure;BME280_temperature;BME280_humidity;BME280_pressure;Samples;Min_cycle;Max_cycle;Signal;HPM_P1;HPM_P2
2023/03/04 00:02:21;;;;;;;0.30;0.30;;;;;;;17.89;38.75;102165.44;5095538;28;20701;-45
2023/03/04 00:04:46;;;;;;;0.30;0.30;;;;;;;17.87;38.71;102162.91;5101598;28;20043;-46
2023/03/04 00:07:15;;;;;;;0.50;0.50;;;;;;;17.88;38.72;102170.13;5098516;28;20048;-45
2023/03/04 00:09:43;;;;;;;0.30;0.30;;;;;;;17.87;38.74;102171.16;5103871;28;20046;-45
2023/03/04 00:12:08;;;;;;;0.20;0.20;;;;;;;17.87;38.80;102165.66;5093536;27;20460;-46
2023/03/04 00:14:34;;;;;;;0.30;0.30;;;;;;;17.87;38.79;102173.94;5121573;27;20044;-47
2023/03/04 00:17:03;;;;;;;0.30;0.30;;;;;;;17.87;38.75;102164.81;5109921;27;20047;-45
2023/03/04 00:19:29;;;;;;;0.30;0.30;;;;;;;17.87;38.92;102167.59;5115577;28;20039;-46
2023/03/04 00:21:55;;;;;;;0.43;0.43;;;;;;;17.87;38.74;102171.16;5114980;28;20111;-47
2023/03/04 00:24:21;;;;;;;0.40;0.40;;;;;;;17.86;38.79;102164.00;5115626;28;20050;-45
2023/03/04 00:26:47;;;;;;;0.30;0.30;;;;;;;17.88;38.70;102174.78;5115306;27;20047;-47
2023/03/04 00:29:12;;;;;;;0.52;0.52;;;;;;;17.87;38.90;102165.66;5115033;28;20430;-45
2023/03/04 00:31:38;;;;;;;0.30;0.30;;;;;;;17.87;38.82;102162.91;5096856;28;20051;-47
2023/03/04 00:34:04;;;;;;;0.35;0.35;;;;;;;17.86;38.75;102165.91;5115988;28;20746;-45
2023/03/04 00:36:29;;;;;;;0.55;0.55;;;;;;;17.87;38.77;102164.81;5115324;28;20411;-45
2023/03/04 00:38:55;;;;;;;0.30;0.30;;;;;;;17.86;38.78;102155.72;5115228;28;20051;-49
2023/03/04 00:41:21;;;;;;;0.40;0.40;;;;;;;17.85;38.80;102148.53;5115316;28;20058;-45
2023/03/04 00:43:46;;;;;;;0.40;0.40;;;;;;;17.86;38.87;102152.13;5115559;28;20119;-46
2023/03/04 00:46:12;;;;;;;0.20;0.20;;;;;;;17.86;38.79;102144.69;5115296;28;20036;-47
2023/03/04 00:48:39;;;;;;;0.30;0.30;;;;;;;17.87;38.76;102148.28;5114916;28;20473;-46
2023/03/04 00:51:05;;;;;;;0.32;0.32;;;;;;;17.86;38.95;102146.63;5115133;28;20047;-45
2023/03/04 00:53:31;;;;;;;0.35;0.35;;;;;;;17.86;38.76;102146.63;5080180;28;20050;-45
2023/03/04 00:55:57;;;;;;;0.30;0.30;;;;;;;17.86;38.76;102146.63;5114956;28;20483;-46
2023/03/04 00:58:22;;;;;;;0.30;0.30;;;;;;;17.86;38.78;102146.63;5115158;28;20054;-45
2023/03/04 01:00:48;;;;;;;0.40;0.40;;;;;;;17.85;38.89;102148.53;5114889;27;20074;-46
2023/03/04 01:03:14;;;;;;;0.50;0.50;;;;;;;17.86;38.84;102146.63;5114491;28;20327;-46
2023/03/04 01:05:40;;;;;;;0.30;0.30;;;;;;;17.86;38.77;102146.63;5114647;28;20051;-46
2023/03/04 01:08:06;;;;;;;0.30;0.30;;;;;;;17.86;38.78;102146.63;5113486;28;20054;-46
2023/03/04 01:10:31;;;;;;;0.50;0.50;;;;;;;17.85;38.72;102137.53;5095842;28;20403;-46
2023/03/04 01:12:57;;;;;;;0.40;0.40;;;;;;;17.85;38.70;102136.69;5114560;27;20526;-46
2023/03/04 01:15:23;;;;;;;0.30;0.30;;;;;;;17.85;38.61;102139.44;5096264;28;20491;-46
2023/03/04 01:17:48;;;;;;;0.30;0.30;;;;;;;17.85;38.72;102133.94;5114873;28;20054;-45
2023/03/04 01:20:15;;;;;;;0.30;0.30;;;;;;;17.85;38.75;102134.75;5096279;28;20454;-46
2023/03/04 01:22:40;;;;;;;0.30;0.30;;;;;;;17.85;38.85;102131.19;5077502;28;20078;-45
2023/03/04 01:25:06;;;;;;;0.30;0.30;;;;;;;17.85;38.72;102129.25;5114353;27;20051;-45
2023/03/04 01:27:32;;;;;;;0.52;0.45;;;;;;;17.86;38.71;102130.09;5114505;28;20058;-46
2023/03/04 01:29:57;;;;;;;0.38;0.38;;;;;;;17.85;38.61;102134.75;5114579;28;20078;-46
2023/03/04 01:32:23;;;;;;;0.30;0.30;;;;;;;17.85;38.80;102137.53;5114046;28;20182;-45
2023/03/04 01:34:49;;;;;;;0.30;0.30;;;;;;;17.84;38.78;102133.09;5114230;28;20047;-48
2023/03/04 01:37:15;;;;;;;0.30;0.30;;;;;;;17.85;38.85;102133.94;5113537;28;20051;-46
2023/03/04 01:39:40;;;;;;;0.30;0.30;;;;;;;17.84;38.78;102130.34;5114217;28;20503;-45
2023/03/04 01:42:17;;;;;;;0.30;0.30;;;;;;;17.85;38.88;102125.66;5114340;28;20051;-45
2023/03/04 01:44:43;;;;;;;0.38;0.38;;;;;;;17.85;38.71;102114.63;5114211;28;20039;-45
2023/03/04 01:47:09;;;;;;;0.20;0.20;;;;;;;17.84;38.78;102122.06;5095706;28;20402;-45
2023/03/04 01:49:35;;;;;;;0.30;0.30;;;;;;;17.85;38.69;102111.88;5095574;28;20047;-46
2023/03/04 01:52:00;;;;;;;0.30;0.30;;;;;;;17.83;38.81;102114.88;5078591;28;20050;-47
2023/03/04 01:54:26;;;;;;;0.30;0.30;;;;;;;17.83;38.73;102103.84;5113855;28;20058;-46
2023/03/04 01:56:52;;;;;;;0.52;0.52;;;;;;;17.84;38.69;102111.06;5113977;28;20491;-46
2023/03/04 01:59:21;;;;;;;0.52;0.52;;;;;;;17.84;38.84;102110.22;5114267;28;20047;-46
2023/03/04 02:01:49;;;;;;;0.40;0.40;;;;;;;17.84;38.98;102101.94;5095648;28;20054;-46
2023/03/04 02:04:16;;;;;;;0.30;0.30;;;;;;;17.83;38.71;102106.59;5113941;28;20133;-46
2023/03/04 02:06:43;;;;;;;0.40;0.40;;;;;;;17.83;38.78;102103.84;5095328;28;20138;-45
2023/03/04 02:09:09;;;;;;;0.30;0.30;;;;;;;17.83;38.72;102106.59;5113186;28;20070;-47
2023/03/04 02:11:36;;;;;;;0.30;0.30;;;;;;;17.83;38.96;102100.25;5113142;27;20062;-45
2023/03/04 02:14:02;;;;;;;0.30;0.30;;;;;;;17.84;38.77;102104.72;5097029;28;20050;-46
2023/03/04 02:16:27;;;;;;;0.35;0.35;;;;;;;17.84;38.80;102093.69;5117517;28;20085;-45
2023/03/04 02:18:53;;;;;;;0.32;0.32;;;;;;;17.84;38.76;102096.44;5117601;28;20053;-45
2023/03/04 02:21:25;;;;;;;0.47;0.40;;;;;;;17.82;38.79;102091.16;5117208;28;20065;-46
2023/03/04 02:23:59;;;;;;;0.40;0.40;;;;;;;17.82;38.95;102093.91;5099176;28;20070;-47
2023/03/04 02:26:27;;;;;;;0.30;0.30;;;;;;;17.83;38.85;102090.06;5116780;28;20047;-45
2023/03/04 02:28:54;;;;;;;0.30;0.30;;;;;;;17.82;38.79;102088.41;5082262;28;20047;-45
2023/03/04 02:31:29;;;;;;;0.30;0.30;;;;;;;17.83;38.74;102089.22;5098472;28;20531;-46
2023/03/04 02:33:57;;;;;;;0.45;0.45;;;;;;;17.82;38.76;102082.06;5099726;28;20499;-45
2023/03/04 02:36:23;;;;;;;0.20;0.20;;;;;;;17.81;38.87;102086.72;5117144;28;20051;-45
2023/03/04 02:38:50;;;;;;;0.30;0.30;;;;;;;17.81;38.72;102089.47;5117379;28;20043;-46
2023/03/04 02:41:19;;;;;;;0.30;0.30;;;;;;;17.82;38.76;102087.56;5098721;28;20076;-45
2023/03/04 02:43:45;;;;;;;0.43;0.43;;;;;;;17.82;38.80;102073.78;5116876;28;20475;-46
2023/03/04 02:46:11;;;;;;;0.47;0.47;;;;;;;17.81;38.62;102078.47;5116962;28;20506;-45
2023/03/04 02:48:37;;;;;;;0.30;0.30;;;;;;;17.81;38.86;102075.72;5098746;28;20093;-45
2023/03/04 02:51:03;;;;;;;0.30;0.30;;;;;;;17.82;38.92;102068.28;5117087;28;20127;-46
2023/03/04 02:53:29;;;;;;;0.45;0.45;;;;;;;17.81;38.73;102072.94;5117057;28;20081;-46
2023/03/04 02:55:54;;;;;;;0.30;0.30;;;;;;;17.82;38.94;102074.63;5116899;28;20039;-46
2023/03/04 02:58:20;;;;;;;0.30;0.30;;;;;;;17.81;38.86;102064.69;5116976;28;20051;-45
2023/03/04 03:00:46;;;;;;;0.20;0.20;;;;;;;17.81;38.77;102067.44;5117353;28;20419;-48
2023/03/04 03:03:11;;;;;;;0.30;0.30;;;;;;;17.80;38.87;102069.38;5116744;28;20046;-45
2023/03/04 03:05:38;;;;;;;0.30;0.30;;;;;;;17.82;38.72;102062.75;5116363;28;20054;-48
2023/03/04 03:08:04;;;;;;;0.40;0.40;;;;;;;17.81;38.90;102059.19;5081167;28;20043;-48
2023/03/04 03:10:30;;;;;;;0.38;0.38;;;;;;;17.81;38.88;102064.69;5085331;28;20051;-46
2023/03/04 03:12:56;;;;;;;0.30;0.30;;;;;;;17.81;38.88;102064.69;5116717;28;20458;-46
2023/03/04 03:15:21;;;;;;;0.30;0.30;;;;;;;17.80;38.56;102063.84;5116595;28;20050;-47
2023/03/04 03:17:47;;;;;;;0.30;0.30;;;;;;;17.81;38.77;102059.19;5116515;28;20051;-47
2023/03/04 03:20:13;;;;;;;0.30;0.30;;;;;;;17.81;38.75;102064.69;5117261;28;20073;-47
2023/03/04 03:22:40;;;;;;;0.40;0.40;;;;;;;17.80;38.76;102060.25;5081706;28;20269;-49
2023/03/04 03:25:06;;;;;;;0.30;0.30;;;;;;;17.80;38.82;102058.34;5097885;27;20047;-45
2023/03/04 03:27:32;;;;;;;0.57;0.57;;;;;;;17.80;38.82;102058.34;5115912;28;20095;-45
2023/03/04 03:29:58;;;;;;;0.40;0.40;;;;;;;17.80;38.88;102052.00;5116943;28;20576;-46
2023/03/04 03:32:24;;;;;;;0.30;0.30;;;;;;;17.80;38.86;102055.59;5116274;28;20047;-46
2023/03/04 03:34:49;;;;;;;0.20;0.20;;;;;;;17.79;38.85;102059.44;5116061;28;20051;-48
2023/03/04 03:37:15;;;;;;;0.30;0.30;;;;;;;17.79;38.85;102053.91;5097359;28;20528;-49
2023/03/04 03:39:41;;;;;;;0.30;0.30;;;;;;;17.80;38.83;102057.50;5116377;28;20082;-45
2023/03/04 03:42:07;;;;;;;0.30;0.30;;;;;;;17.79;39.07;102059.44;5116714;28;20047;-47
2023/03/04 03:44:32;;;;;;;0.40;0.40;;;;;;;17.78;38.80;102054.97;5097771;28;20039;-47
2023/03/04 03:46:58;;;;;;;0.32;0.32;;;;;;;17.80;38.57;102052.00;5115866;28;20050;-46
2023/03/04 03:49:24;;;;;;;0.30;0.30;;;;;;;17.79;39.02;102042.91;5115923;28;20055;-48
2023/03/04 03:51:49;;;;;;;0.30;0.30;;;;;;;17.80;38.97;102046.47;5116196;28;20095;-45
2023/03/04 03:54:15;;;;;;;0.40;0.40;;;;;;;17.79;38.66;102045.66;5116006;28;20086;-47
2023/03/04 03:56:41;;;;;;;0.40;0.40;;;;;;;17.79;38.85;102037.38;5115885;28;20051;-48
2023/03/04 03:59:06;;;;;;;0.30;0.30;;;;;;;17.79;38.85;102045.66;5115918;28;20111;-45
2023/03/04 04:01:32;;;;;;;0.40;0.40;;;;;;;17.79;38.83;102040.13;5116191;28;20513;-48
2023/03/04 04:03:59;;;;;;;0.30;0.30;;;;;;;17.78;38.83;102038.44;5097889;28;20055;-46
2023/03/04 04:06:25;;;;;;;0.30;0.30;;;;;;;17.78;38.76;102043.94;5097263;28;20373;-48
2023/03/04 04:08:51;;;;;;;0.30;0.30;;;;;;;17.78;38.84;102045.88;5095493;28;20518;-47
2023/03/04 04:11:17;;;;;;;0.30;0.30;;;;;;;17.79;38.56;102044.81;5089810;28;20071;-45
2023/03/04 04:13:42;;;;;;;0.40;0.40;;;;;;;17.78;38.92;102046.72;5115576;28;20045;-46
2023/03/04 04:16:09;;;;;;;0.40;0.40;;;;;;;17.79;38.91;102044.81;5095183;27;20047;-46
2023/03/04 04:18:35;;;;;;;0.45;0.45;;;;;;;17.78;38.92;102035.69;5095087;28;20059;-46
2023/03/04 04:21:00;;;;;;;0.30;0.30;;;;;;;17.79;38.78;102042.06;5095350;28;20648;-45
2023/03/04 04:23:26;;;;;;;0.30;0.30;;;;;;;17.78;39.01;102043.13;5095512;28;20403;-49
2023/03/04 04:25:54;;;;;;;0.30;0.30;;;;;;;17.78;38.82;102037.59;5094982;28;20057;-48
2023/03/04 04:28:19;;;;;;;0.30;0.30;;;;;;;17.78;38.86;102037.59;5100718;28;20078;-47
2023/03/04 04:30:45;;;;;;;0.40;0.40;;;;;;;17.78;38.89;102038.44;5114999;28;20039;-49
2023/03/04 04:33:11;;;;;;;0.40;0.40;;;;;;;17.78;38.82;102037.59;5115546;28;20555;-46
2023/03/04 04:35:37;;;;;;;0.40;0.40;;;;;;;17.78;38.79;102038.44;5099390;27;20495;-47
2023/03/04 04:38:04;;;;;;;0.30;0.30;;;;;;;17.79;38.87;102039.31;5094366;28;20054;-45
2023/03/04 04:40:30;;;;;;;0.30;0.30;;;;;;;17.77;38.85;102034.03;5095352;28;20067;-45
2023/03/04 04:42:55;;;;;;;1.05;0.95;;;;;;;17.78;38.88;102043.94;5095098;28;20445;-46
2023/03/04 04:45:23;;;;;;;0.40;0.40;;;;;;;17.78;38.92;102045.88;5094767;28;20046;-47
2023/03/04 04:47:50;;;;;;;0.40;0.40;;;;;;;17.77;38.82;102045.03;5076691;28;20247;-46
2023/03/04 04:50:15;;;;;;;0.30;0.30;;;;;;;17.77;38.92;102045.03;5094574;28;20047;-48
2023/03/04 04:52:41;;;;;;;0.30;0.30;;;;;;;17.78;38.81;102052.22;5075980;28;20043;-48
2023/03/04 04:55:08;;;;;;;0.30;0.30;;;;;;;17.78;38.84;102043.94;5094959;28;20051;-46
2023/03/04 04:57:33;;;;;;;0.30;0.30;;;;;;;17.78;38.97;102048.63;5094707;28;20048;-48
2023/03/04 04:59:59;;;;;;;0.30;0.30;;;;;;;17.77;38.93;102046.97;5094880;28;20050;-46
2023/03/04 05:02:25;;;;;;;0.40;0.40;;;;;;;17.77;38.89;102047.78;5094534;28;20048;-48
2023/03/04 05:04:50;;;;;;;0.30;0.30;;;;;;;17.77;38.91;102047.78;5094989;28;20071;-46
2023/03/04 05:07:16;;;;;;;0.30;0.30;;;;;;;17.78;38.92;102048.63;5094009;28;20414;-48
2023/03/04 05:09:42;;;;;;;0.30;0.30;;;;;;;17.77;38.83;102047.78;5087886;28;20616;-46
2023/03/04 05:12:07;;;;;;;0.30;0.30;;;;;;;17.76;38.72;102043.38;5114123;28;20047;-47
2023/03/04 05:14:33;;;;;;;0.55;0.50;;;;;;;17.77;38.76;102044.22;5113863;28;20073;-48
2023/03/04 05:16:59;;;;;;;0.47;0.47;;;;;;;17.77;38.83;102046.97;5114843;28;20723;-46
2023/03/04 05:19:24;;;;;;;0.30;0.30;;;;;;;17.77;38.79;102042.28;5114348;28;20043;-46
2023/03/04 05:21:50;;;;;;;0.30;0.30;;;;;;;17.77;38.82;102052.47;5114989;28;20418;-49
2023/03/04 05:24:16;;;;;;;0.63;0.63;;;;;;;17.75;38.81;102047.22;5095906;28;20197;-45
2023/03/04 05:26:41;;;;;;;0.30;0.30;;;;;;;17.76;38.89;102046.13;5114479;27;20047;-48
2023/03/04 05:29:07;;;;;;;0.30;0.30;;;;;;;17.76;38.95;102042.53;5114157;28;20081;-47
2023/03/04 05:31:33;;;;;;;0.30;0.30;;;;;;;17.76;38.91;102048.06;5113286;28;20587;-45
2023/03/04 05:33:58;;;;;;;0.30;0.30;;;;;;;17.77;38.92;102052.47;5113761;28;20043;-46
2023/03/04 05:36:24;;;;;;;0.32;0.32;;;;;;;17.76;38.77;102050.81;5114344;28;20047;-49
2023/03/04 05:38:50;;;;;;;0.30;0.30;;;;;;;17.75;38.89;102055.47;5114416;28;20304;-46
2023/03/04 05:41:19;;;;;;;0.50;0.50;;;;;;;17.75;38.91;102051.91;5114618;28;20104;-46
2023/03/04 05:43:44;;;;;;;0.35;0.35;;;;;;;17.77;38.99;102055.22;5114364;28;20058;-47
2023/03/04 05:46:15;;;;;;;0.30;0.30;;;;;;;17.76;38.93;102059.06;5101187;28;20047;-48
2023/03/04 05:48:41;;;;;;;0.40;0.40;;;;;;;17.76;38.71;102059.91;5097361;28;20076;-45
2023/03/04 05:51:06;;;;;;;0.30;0.30;;;;;;;17.76;38.90;102051.66;5117743;28;20047;-48
2023/03/04 05:53:32;;;;;;;0.40;0.40;;;;;;;17.76;38.89;102051.66;5117713;28;20055;-46
2023/03/04 05:55:58;;;;;;;0.35;0.35;;;;;;;17.76;38.91;102061.84;5117321;28;20074;-47
2023/03/04 05:58:24;;;;;;;0.40;0.40;;;;;;;17.76;38.96;102061.84;5118133;28;20054;-46
2023/03/04 06:00:50;;;;;;;0.30;0.30;;;;;;;17.76;38.99;102059.06;5099572;28;20540;-48
2023/03/04 06:03:18;;;;;;;0.30;0.30;;;;;;;17.76;38.76;102056.31;5117462;28;20073;-47
2023/03/04 06:05:44;;;;;;;0.40;0.40;;;;;;;17.76;38.91;102059.06;5099463;28;20092;-49
2023/03/04 06:08:11;;;;;;;0.43;0.40;;;;;;;17.75;39.16;102052.72;5099238;28;20452;-45
2023/03/04 06:10:38;;;;;;;0.40;0.40;;;;;;;17.75;38.79;102057.41;5133905;27;20059;-45
2023/03/04 06:13:03;;;;;;;0.40;0.40;;;;;;;17.75;38.96;102061.00;5119466;27;20043;-47
2023/03/04 06:15:29;;;;;;;0.40;0.40;;;;;;;17.75;38.90;102054.66;5114027;27;20096;-49
2023/03/04 06:17:55;;;;;;;0.30;0.30;;;;;;;17.74;38.84;102059.28;5117735;27;20062;-47
2023/03/04 06:20:21;;;;;;;0.30;0.30;;;;;;;17.75;38.93;102057.41;5116449;28;20134;-47
2023/03/04 06:22:46;;;;;;;0.40;0.40;;;;;;;17.75;38.89;102063.75;5116140;28;20045;-49
2023/03/04 06:25:12;;;;;;;0.57;0.57;;;;;;;17.75;38.85;102072.03;5105189;28;20726;-46
2023/03/04 06:27:38;;;;;;;0.30;0.30;;;;;;;17.75;38.87;102069.25;5096940;28;20048;-48
2023/03/04 06:30:04;;;;;;;0.40;0.40;;;;;;;17.75;38.84;102080.28;5078056;28;20122;-48
2023/03/04 06:32:30;;;;;;;0.63;0.40;;;;;;;17.75;38.94;102082.22;5106497;28;20585;-49
2023/03/04 06:34:55;;;;;;;0.40;0.30;;;;;;;17.76;38.87;102081.13;5107001;27;20044;-47
2023/03/04 06:37:21;;;;;;;0.30;0.30;;;;;;;17.74;39.16;102081.34;5096200;28;20320;-48
2023/03/04 06:39:47;;;;;;;0.30;0.30;;;;;;;17.75;38.86;102079.44;5097349;28;20044;-46
2023/03/04 06:42:13;;;;;;;0.40;0.40;;;;;;;17.74;38.90;102086.84;5096939;28;20051;-45
2023/03/04 06:44:38;;;;;;;0.40;0.40;;;;;;;17.74;38.93;102086.00;5096356;28;20058;-46
2023/03/04 06:47:04;;;;;;;0.38;0.38;;;;;;;17.75;38.91;102093.22;5078708;28;20496;-47
2023/03/04 06:49:30;;;;;;;0.50;0.50;;;;;;;17.75;38.96;102084.97;5096685;28;20044;-47
2023/03/04 06:51:55;;;;;;;0.40;0.40;;;;;;;17.74;38.90;102089.59;5078206;28;20058;-46
2023/03/04 06:54:21;;;;;;;0.30;0.30;;;;;;;17.74;38.96;102092.38;5095902;28;20531;-46
2023/03/04 06:56:47;;;;;;;0.40;0.40;;;;;;;17.74;38.83;102092.38;5095807;28;20510;-47
2023/03/04 06:59:13;;;;;;;0.40;0.40;;;;;;;17.74;38.90;102094.28;5096304;28;20525;-45
2023/03/04 07:01:38;;;;;;;0.40;0.40;;;;;;;17.74;38.91;102091.53;5078096;28;20043;-46
2023/03/04 07:04:04;;;;;;;0.40;0.40;;;;;;;17.74;38.97;102100.63;5096383;28;20462;-45
2023/03/04 07:06:30;;;;;;;0.50;0.50;;;;;;;17.74;38.85;102097.88;5078310;28;20383;-45
2023/03/04 07:08:56;;;;;;;0.40;0.40;;;;;;;17.75;39.00;102099.56;5095674;27;20051;-47
2023/03/04 07:11:22;;;;;;;0.45;0.40;;;;;;;17.75;38.81;102104.25;5078085;28;20056;-47
2023/03/04 07:13:48;;;;;;;0.50;0.50;;;;;;;17.74;39.08;102106.13;5077946;28;20071;-47
2023/03/04 07:16:16;;;;;;;0.40;0.40;;;;;;;17.74;38.95;102103.38;5097801;28;20053;-46
2023/03/04 07:18:42;;;;;;;;;;;;;;;17.73;39.00;102098.94;5116705;28;20059;-46
2023/03/04 07:21:08;;;;;;;0.30;0.30;;;;;;;17.72;39.04;102100.00;5098582;28;19957;-46
2023/03/04 07:23:33;;;;;;;0.30;0.30;;;;;;;17.73;38.96;102101.69;5098109;28;20054;-45
2023/03/04 07:25:59;;;;;;;0.38;0.38;;;;;;;17.73;38.91;102107.19;5116616;27;20078;-48
2023/03/04 07:28:25;;;;;;;0.40;0.40;;;;;;;17.74;38.85;102110.81;5081320;28;20043;-45
2023/03/04 07:30:50;;;;;;;0.40;0.40;;;;;;;17.73;38.86;102104.44;5115353;28;20078;-47
2023/03/04 07:33:16;;;;;;;0.30;0.30;;;;;;;17.75;38.94;102115.28;5097609;28;20502;-47
2023/03/04 07:35:42;;;;;;;0.40;0.40;;;;;;;17.73;38.74;102118.22;5115681;28;20047;-46
2023/03/04 07:38:08;;;;;;;0.30;0.30;;;;;;;17.71;38.77;102109.38;5115699;28;20051;-48
2023/03/04 07:40:33;;;;;;;0.40;0.40;;;;;;;17.73;38.89;102117.38;5116362;28;20314;-46
2023/03/04 07:42:59;;;;;;;0.30;0.30;;;;;;;17.74;39.00;102119.06;5116678;28;20039;-48
2023/03/04 07:45:25;;;;;;;0.30;0.30;;;;;;;17.73;38.77;102120.13;5116331;28;20054;-49
2023/03/04 07:47:51;;;;;;;0.40;0.40;;;;;;;17.73;38.94;102109.94;5098018;28;20510;-47
2023/03/04 07:54:29;;;;;;;0.43;0.43;;;;;;;17.72;39.00;102115.72;5114699;28;20049;-45
2023/03/04 07:56:54;;;;;;;0.30;0.30;;;;;;;17.72;38.89;102126.72;5115493;28;20483;-45
2023/03/04 07:59:20;;;;;;;0.40;0.40;;;;;;;17.72;38.81;102123.97;5116054;28;20099;-46
2023/03/04 08:01:46;;;;;;;0.30;0.30;;;;;;;17.72;38.98;102113.78;5116028;28;20388;-47
2023/03/04 08:04:11;;;;;;;0.40;0.40;;;;;;;17.72;38.92;102119.31;5116402;28;20403;-45
2023/03/04 08:06:39;;;;;;;0.40;0.40;;;;;;;17.72;38.93;102119.31;5116129;28;20043;-46
2023/03/04 08:09:07;;;;;;;0.40;0.40;;;;;;;17.72;38.81;102124.81;5096893;28;20051;-45
2023/03/04 08:11:34;;;;;;;0.30;0.30;;;;;;;17.72;38.87;102121.22;5114609;27;20533;-45
2023/03/04 08:14:00;;;;;;;0.25;0.25;;;;;;;17.73;39.03;102125.66;5097530;28;20062;-47
2023/03/04 08:16:26;;;;;;;0.73;0.73;;;;;;;17.72;38.92;102127.56;5097043;28;20077;-45
2023/03/04 08:18:54;;;;;;;0.30;0.30;;;;;;;17.72;38.87;102133.06;5115235;28;20085;-47
2023/03/04 08:21:21;;;;;;;0.40;0.40;;;;;;;17.72;38.77;102123.97;5115580;28;20039;-46
2023/03/04 08:23:47;;;;;;;0.30;0.30;;;;;;;17.72;39.00;102123.97;5097051;28;20427;-49
2023/03/04 08:26:19;;;;;;;0.30;0.30;;;;;;;17.72;39.02;102123.97;5080419;28;20043;-46
2023/03/04 08:28:46;;;;;;;0.40;0.40;;;;;;;17.72;38.84;102123.97;5080591;28;20051;-48
2023/03/04 08:31:12;;;;;;;0.30;0.30;;;;;;;17.72;39.02;102118.47;5115275;28;20153;-48
2023/03/04 08:33:38;;;;;;;0.40;0.40;;;;;;;17.72;38.92;102129.50;5096863;28;20089;-47
2023/03/04 08:36:05;;;;;;;0.30;0.30;;;;;;;17.72;39.02;102123.97;5097132;28;20039;-49
2023/03/04 08:38:31;;;;;;;0.40;0.40;;;;;;;17.71;38.86;102123.16;5115047;28;20593;-48
2023/03/04 08:40:57;;;;;;;0.63;0.50;;;;;;;17.71;38.98;102125.91;5115658;28;20063;-46
2023/03/04 08:43:24;;;;;;;0.40;0.40;;;;;;;17.73;38.96;102131.16;5115617;28;20043;-46
2023/03/04 08:45:51;;;;;;;0.30;0.30;;;;;;;17.71;38.89;102130.56;5096760;28;20081;-45
2023/03/04 08:48:17;;;;;;;0.40;0.40;;;;;;;17.71;38.94;102123.16;5097134;28;20039;-46
2023/03/04 08:50:43;;;;;;;0.40;0.40;;;;;;;17.73;38.98;102128.41;5096804;28;20112;-46
2023/03/04 08:53:10;;;;;;;0.40;0.40;;;;;;;17.71;39.10;102125.06;5096481;28;20047;-46
2023/03/04 08:55:38;;;;;;;0.40;0.40;;;;;;;17.71;38.97;102122.31;5096563;28;20046;-48
2023/03/04 08:58:04;;;;;;;0.30;0.30;;;;;;;17.72;38.92;102123.97;5096754;28;20501;-49
2023/03/04 09:00:31;;;;;;;0.40;0.40;;;;;;;17.71;38.93;102117.63;5114964;28;20498;-46
2023/03/04 09:02:56;;;;;;;0.35;0.35;;;;;;;17.70;38.86;102115.09;5114732;28;20043;-45
2023/03/04 09:05:22;;;;;;;0.30;0.30;;;;;;;17.70;38.85;102118.72;5115266;28;20547;-48
2023/03/04 09:07:48;;;;;;;0.30;0.30;;;;;;;17.71;38.98;102112.13;5115793;27;20051;-48
2023/03/04 09:10:13;;;;;;;0.50;0.50;;;;;;;17.72;39.07;102124.81;5135647;27;20084;-45
2023/03/04 09:12:39;;;;;;;0.40;0.40;;;;;;;17.71;38.98;102122.31;5135342;27;20046;-47
2023/03/04 09:15:05;;;;;;;0.40;0.40;;;;;;;17.71;39.10;102125.06;5112908;27;20039;-49
2023/03/04 09:17:38;;;;;;;0.40;0.40;;;;;;;17.71;38.98;102114.88;5094412;28;20121;-46
2023/03/04 09:20:07;;;;;;;0.40;0.40;;;;;;;17.72;38.92;102126.72;5095123;28;20339;-46
2023/03/04 09:22:32;;;;;;;0.50;0.50;;;;;;;17.71;39.08;102119.56;5095513;28;20504;-46
2023/03/04 09:24:58;;;;;;;0.40;0.40;;;;;;;17.71;39.04;102127.81;5104577;28;20039;-46
2023/03/04 09:27:24;;;;;;;0.45;0.45;;;;;;;17.72;38.93;102123.97;5094893;28;20051;-48
2023/03/04 09:29:49;;;;;;;0.30;0.30;;;;;;;17.70;39.00;102121.47;5094369;28;20059;-45
2023/03/04 09:32:15;;;;;;;0.40;0.40;;;;;;;17.70;38.83;102128.88;5093963;28;20074;-46
2023/03/04 09:34:41;;;;;;;0.40;0.40;;;;;;;17.71;38.92;102127.81;5093697;28;20055;-46
2023/03/04 09:37:06;;;;;;;0.40;0.40;;;;;;;17.71;38.95;102130.56;5098027;28;20423;-46
2023/03/04 09:39:32;;;;;;;0.30;0.30;;;;;;;17.69;38.98;102128.03;5114468;27;20078;-47
2023/03/04 09:41:59;;;;;;;0.73;0.47;;;;;;;17.70;39.02;102129.75;5114274;27;20051;-47
2023/03/04 09:44:28;;;;;;;0.40;0.40;;;;;;;17.71;39.01;102131.41;5105630;28;20043;-46
2023/03/04 09:46:58;;;;;;;0.30;0.30;;;;;;;17.71;39.07;102125.06;5094341;28;20040;-47
2023/03/04 09:49:24;;;;;;;0.30;0.30;;;;;;;17.70;38.97;102126.97;5094514;28;20055;-46
2023/03/04 09:52:04;;;;;;;0.30;0.30;;;;;;;17.71;39.01;102119.56;5075425;28;20075;-45
2023/03/04 09:54:39;;;;;;;0.30;0.30;;;;;;;17.71;38.90;102123.16;5093621;28;20048;-46
2023/03/04 09:57:27;;;;;;;0.30;0.30;;;;;;;17.71;38.99;102125.06;5076292;28;20079;-46
2023/03/04 10:00:06;;;;;;;0.30;0.30;;;;;;;17.70;39.13;102115.09;5062185;28;20047;-48
2023/03/04 10:02:51;;;;;;;0.30;0.30;;;;;;;17.70;39.04;102107.69;5076108;28;20067;-49
2023/03/04 10:05:19;;;;;;;0.30;0.30;;;;;;;17.69;38.85;102111.50;5093679;28;20093;-46
2023/03/04 10:07:48;;;;;;;0.22;0.22;;;;;;;17.70;38.96;102107.69;5108595;27;20136;-46
2023/03/04 10:10:26;;;;;;;0.35;0.35;;;;;;;17.70;39.29;102101.31;5116701;27;20050;-48
2023/03/04 10:12:54;;;;;;;0.40;0.40;;;;;;;17.69;38.90;102097.72;5115936;27;20047;-47
2023/03/04 10:15:34;;;;;;;0.30;0.30;;;;;;;17.70;38.96;102104.06;5089496;28;20545;-45
2023/03/04 10:18:13;;;;;;;0.30;0.30;;;;;;;17.70;38.81;102101.31;5095757;28;20075;-46
2023/03/04 10:21:19;;;;;;;0.38;0.38;;;;;;;17.69;38.97;102096.91;5095607;28;20043;-47
2023/03/04 10:23:44;;;;;;;0.40;0.40;;;;;;;17.69;38.97;102092.22;5094312;28;20488;-50
2023/03/04 10:26:16;;;;;;;0.40;0.40;;;;;;;17.69;38.99;102085.88;5113577;27;20543;-46
2023/03/04 10:28:42;;;;;;;0.30;0.30;;;;;;;17.69;39.07;102081.22;5114513;28;20284;-48
2023/03/04 10:33:42;;;;;;;0.63;0.45;;;;;;;17.70;39.00;102085.66;5173503;27;20119;-46
2023/03/04 10:39:38;;;;;;;0.40;0.40;;;;;;;17.69;38.87;102086.72;5173513;27;20323;-47
2023/03/04 10:42:23;;;;;;;0.30;0.30;;;;;;;17.69;38.82;102077.63;5101869;27;20039;-45
2023/03/04 10:44:52;;;;;;;0.32;0.32;;;;;;;17.69;38.90;102080.38;5140939;27;20057;-47
2023/03/04 10:47:18;;;;;;;0.40;0.40;;;;;;;17.69;39.06;102083.13;5151344;27;20054;-46
2023/03/04 10:49:54;;;;;;;0.30;0.30;;;;;;;17.69;38.99;102086.72;5152948;27;20069;-47
2023/03/04 10:52:29;;;;;;;0.40;0.40;;;;;;;17.68;39.05;102087.81;5133901;27;20053;-48
2023/03/04 10:54:57;;;;;;;0.30;0.30;;;;;;;17.69;38.95;102078.44;5150533;27;20065;-50
2023/03/04 10:57:32;;;;;;;;;;;;;;;17.69;38.90;102083.13;5150875;27;20099;-45
2023/03/04 11:00:02;;;;;;;0.30;0.30;;;;;;;17.68;39.12;102087.81;5151204;27;19962;-46
2023/03/04 11:02:31;;;;;;;0.40;0.40;;;;;;;17.68;39.13;102087.81;5152512;27;20249;-46
2023/03/04 11:05:18;;;;;;;0.40;0.40;;;;;;;17.68;39.16;102084.22;5152402;27;20050;-47
2023/03/04 11:07:49;;;;;;;0.30;0.30;;;;;;;17.69;39.11;102085.88;5136645;27;20079;-48
2023/03/04 11:10:39;;;;;;;0.28;0.28;;;;;;;17.69;38.88;102074.88;5134870;27;20490;-47
2023/03/04 11:13:16;;;;;;;0.30;0.30;;;;;;;17.67;38.89;102072.38;5135092;27;20418;-46
2023/03/04 11:16:04;;;;;;;0.30;0.30;;;;;;;17.68;38.96;102065.75;5128885;27;20059;-49
2023/03/04 11:18:40;;;;;;;0.20;0.20;;;;;;;17.68;39.03;102065.75;5136258;27;20042;-45
2023/03/04 11:21:07;;;;;;;0.30;0.30;;;;;;;17.68;38.92;102065.75;5152748;27;20054;-47
2023/03/04 11:23:45;;;;;;;0.30;0.30;;;;;;;17.68;39.34;102071.28;5150819;27;20076;-49
2023/03/04 11:26:16;;;;;;;0.30;0.30;;;;;;;17.68;39.12;102059.41;5140019;27;20054;-46
2023/03/04 11:28:53;;;;;;;0.40;0.40;;;;;;;17.68;39.05;102054.75;5129965;27;20072;-46
2023/03/04 11:31:25;;;;;;;0.30;0.30;;;;;;;17.68;39.16;102052.00;5129794;27;20101;-45
2023/03/04 11:34:00;;;;;;;0.30;0.30;;;;;;;17.69;38.94;102050.91;5131324;27;20334;-48
2023/03/04 11:36:57;;;;;;;0.30;0.30;;;;;;;17.69;39.02;102047.31;5130811;27;20051;-46
2023/03/04 11:39:43;;;;;;;0.40;0.40;;;;;;;17.68;38.90;102046.47;5131069;27;20051;-48